createdAt,value
2019-03-17T00:02:17.806Z,10.10
2019-03-17T00:04:45.104Z,12.68
2019-03-17T00:07:12.374Z,13.25
2019-03-17T00:09:39.649Z,9.90
2019-03-17T00:12:06.938Z,13.65
2019-03-17T00:14:34.212Z,10.75
2019-03-17T00:17:01.567Z,12.58
2019-03-17T00:19:28.838Z,14.53
2019-03-17T00:21:56.246Z,11.10
2019-03-17T00:24:23.538Z,14.55
2019-03-17T00:26:50.853Z,10.60
2019-03-17T00:29:18.251Z,9.98
2019-03-17T00:31:45.611Z,10.63
2019-03-17T00:34:12.902Z,11.30
2019-03-17T00:36:40.230Z,11.95
2019-03-17T00:39:07.504Z,11.50
2019-03-17T00:41:34.791Z,12.45
2019-03-17T00:44:02.130Z,13.32
2019-03-17T00:46:29.445Z,10.25
2019-03-17T00:48:56.719Z,14.75
2019-03-17T00:51:23.993Z,10.72
2019-03-17T00:53:51.373Z,8.93
2019-03-17T00:56:18.799Z,9.85
2019-03-17T00:58:46.056Z,8.10
2019-03-17T01:01:13.482Z,11.70
2019-03-17T01:03:40.886Z,9.55
2019-03-17T01:06:08.184Z,12.50
2019-03-17T01:08:35.521Z,12.35
2019-03-17T01:11:02.828Z,12.18
2019-03-17T01:13:30.093Z,8.73
2019-03-17T01:15:57.347Z,9.43
2019-03-17T01:18:25.069Z,14.43
2019-03-17T01:20:52.352Z,6.15
2019-03-17T01:23:19.651Z,13.60
2019-03-17T01:25:46.990Z,11.90
2019-03-17T01:28:14.251Z,7.12
2019-03-17T01:30:41.517Z,11.75
2019-03-17T01:33:10.765Z,9.30
2019-03-17T01:35:38.245Z,12.28
2019-03-17T01:38:05.517Z,15.58
2019-03-17T01:40:32.851Z,8.58
2019-03-17T01:43:00.150Z,12.33
2019-03-17T01:45:27.455Z,7.10
2019-03-17T01:47:55.022Z,10.80
2019-03-17T01:50:22.283Z,9.38
2019-03-17T01:52:49.562Z,7.20
2019-03-17T01:55:16.821Z,11.18
2019-03-17T01:57:44.170Z,7.75
2019-03-17T02:00:12.721Z,11.25
2019-03-17T02:02:40.001Z,13.20
2019-03-17T02:05:07.417Z,11.18
2019-03-17T02:07:34.694Z,9.00
2019-03-17T02:10:01.947Z,7.75
2019-03-17T02:12:29.229Z,8.93
2019-03-17T02:14:56.642Z,12.68
2019-03-17T02:17:23.990Z,10.23
2019-03-17T02:19:51.255Z,7.75
2019-03-17T02:22:18.535Z,8.43
2019-03-17T02:24:45.797Z,7.67
2019-03-17T02:27:13.262Z,8.15
2019-03-17T02:29:40.597Z,7.95
2019-03-17T02:32:07.888Z,9.43
2019-03-17T02:34:35.235Z,9.00
2019-03-17T02:37:02.667Z,12.05
2019-03-17T02:39:30.003Z,14.05
2019-03-17T02:41:57.295Z,10.50
2019-03-17T02:44:24.571Z,7.05
2019-03-17T02:46:51.829Z,9.03
2019-03-17T02:49:19.106Z,8.25
2019-03-17T02:51:46.380Z,7.78
2019-03-17T02:54:13.654Z,12.25
2019-03-17T02:56:40.924Z,8.15
2019-03-17T02:59:08.265Z,10.25
2019-03-17T03:01:35.530Z,9.70
2019-03-17T03:04:02.832Z,8.48
2019-03-17T03:06:30.093Z,10.35
2019-03-17T03:08:57.365Z,8.80
2019-03-17T03:11:24.661Z,11.33
2019-03-17T03:13:51.926Z,8.75
2019-03-17T03:16:19.201Z,6.87
2019-03-17T03:18:46.491Z,7.58
2019-03-17T03:21:13.772Z,10.48
2019-03-17T03:23:41.362Z,11.55
2019-03-17T03:26:08.623Z,8.85
2019-03-17T03:28:36.108Z,7.10
2019-03-17T03:31:03.462Z,12.50
2019-03-17T03:33:31.486Z,9.98
2019-03-17T03:36:09.928Z,8.18
2019-03-17T03:38:27.813Z,6.28
2019-03-17T03:40:55.068Z,6.53
2019-03-17T03:43:22.394Z,13.05
2019-03-17T03:45:49.697Z,9.68
2019-03-17T03:48:17.039Z,8.83
2019-03-17T03:50:44.298Z,5.90
2019-03-17T03:53:11.586Z,5.87
2019-03-17T03:55:42.092Z,6.42
2019-03-17T03:58:07.919Z,6.83
2019-03-17T04:00:35.209Z,6.47
2019-03-17T04:03:02.505Z,2.30
2019-03-17T04:05:32.644Z,3.17
2019-03-17T04:07:58.759Z,2.45
2019-03-17T04:10:26.032Z,2.35
2019-03-17T04:12:53.306Z,4.60
2019-03-17T04:15:20.576Z,3.35
2019-03-17T04:17:47.930Z,3.40
2019-03-17T04:20:15.249Z,2.98
2019-03-17T04:22:42.514Z,4.40
2019-03-17T04:25:11.699Z,4.20
2019-03-17T04:27:38.969Z,3.50
2019-03-17T04:30:09.905Z,4.58
2019-03-17T04:32:37.181Z,4.35
2019-03-17T04:35:05.683Z,3.22
2019-03-17T04:37:32.986Z,2.72
2019-03-17T04:40:00.620Z,3.50
2019-03-17T04:42:27.990Z,2.72
2019-03-17T04:44:55.258Z,2.60
2019-03-17T04:47:22.532Z,1.45
2019-03-17T04:49:49.784Z,3.22
2019-03-17T04:52:17.167Z,4.00
2019-03-17T04:54:44.506Z,4.97
2019-03-17T04:57:11.824Z,1.82
2019-03-17T04:59:39.202Z,4.75
2019-03-17T05:02:06.684Z,1.50
2019-03-17T05:04:33.966Z,3.42
2019-03-17T05:07:01.254Z,2.65
2019-03-17T05:09:28.523Z,4.25
2019-03-17T05:11:55.801Z,2.00
2019-03-17T05:14:23.079Z,2.27
2019-03-17T05:16:50.398Z,3.52
2019-03-17T05:19:17.670Z,1.95
2019-03-17T05:21:44.930Z,1.98
2019-03-17T05:24:12.301Z,2.12
2019-03-17T05:26:39.631Z,1.80
2019-03-17T05:29:06.962Z,2.70
2019-03-17T05:31:34.388Z,1.70
2019-03-17T05:34:01.703Z,1.37
2019-03-17T05:36:28.949Z,1.70
2019-03-17T05:38:56.234Z,0.57
2019-03-17T05:41:23.490Z,1.85
2019-03-17T05:43:50.765Z,1.62
2019-03-17T05:46:18.146Z,0.78
2019-03-17T05:48:45.725Z,1.70
2019-03-17T05:51:13.000Z,1.75
2019-03-17T05:53:40.540Z,3.12
2019-03-17T05:56:08.052Z,1.55
2019-03-17T05:58:35.412Z,1.42
2019-03-17T06:01:02.788Z,2.52
2019-03-17T06:03:30.178Z,2.83
2019-03-17T06:05:57.472Z,1.60
2019-03-17T06:08:24.756Z,1.82
2019-03-17T06:10:52.054Z,5.12
2019-03-17T06:13:19.374Z,3.22
2019-03-17T06:15:46.661Z,0.78
2019-03-17T06:18:13.922Z,1.65
2019-03-17T06:20:41.361Z,2.33
2019-03-17T06:23:08.662Z,4.30
2019-03-17T06:25:35.972Z,1.32
2019-03-17T06:28:03.246Z,1.77
2019-03-17T06:30:30.542Z,2.98
2019-03-17T06:32:57.793Z,1.35
2019-03-17T06:35:25.211Z,1.50
2019-03-17T06:37:52.549Z,2.27
2019-03-17T06:40:19.881Z,2.30
2019-03-17T06:42:47.172Z,4.00
2019-03-17T06:45:14.612Z,2.20
2019-03-17T06:47:41.873Z,5.85
2019-03-17T06:50:32.666Z,2.58
2019-03-17T06:52:59.933Z,4.60
2019-03-17T06:55:27.211Z,3.95
2019-03-17T06:57:54.535Z,5.15
2019-03-17T07:00:21.807Z,4.90
2019-03-17T07:02:49.118Z,8.28
2019-03-17T07:05:16.539Z,8.20
2019-03-17T07:07:44.851Z,3.60
2019-03-17T07:10:12.617Z,7.15
2019-03-17T07:12:39.899Z,2.45
2019-03-17T07:15:08.714Z,5.80
2019-03-17T07:17:35.977Z,7.05
2019-03-17T07:20:04.335Z,6.90
2019-03-17T07:22:31.602Z,7.45
2019-03-17T07:24:58.868Z,5.65
2019-03-17T07:27:26.147Z,2.77
2019-03-17T07:29:53.430Z,4.70
2019-03-17T07:32:20.700Z,2.37
2019-03-17T07:34:47.987Z,4.08
2019-03-17T07:37:15.339Z,2.52
2019-03-17T07:39:42.693Z,2.45
2019-03-17T07:42:09.961Z,4.53
2019-03-17T07:44:37.326Z,2.80
2019-03-17T07:47:04.616Z,3.52
2019-03-17T07:49:31.959Z,3.90
2019-03-17T07:51:59.242Z,2.08
2019-03-17T07:54:26.625Z,2.62
2019-03-17T07:56:53.890Z,1.80
2019-03-17T07:59:21.158Z,4.22
2019-03-17T08:01:48.631Z,2.90
2019-03-17T08:04:15.980Z,2.98
2019-03-17T08:06:43.258Z,1.40
2019-03-17T08:09:10.538Z,4.90
2019-03-17T08:11:37.802Z,3.67
2019-03-17T08:14:05.102Z,2.55
2019-03-17T08:16:32.462Z,4.55
2019-03-17T08:18:59.917Z,3.15
2019-03-17T08:21:27.205Z,4.28
2019-03-17T08:23:54.490Z,5.58
2019-03-17T08:26:21.855Z,2.40
2019-03-17T08:28:49.114Z,4.97
2019-03-17T08:31:16.394Z,4.65
2019-03-17T08:33:43.827Z,6.00
2019-03-17T08:36:11.178Z,2.35
2019-03-17T08:38:38.470Z,3.55
2019-03-17T08:41:05.926Z,2.25
2019-03-17T08:43:33.211Z,3.17
2019-03-17T08:46:00.476Z,3.02
2019-03-17T08:48:27.754Z,4.10
2019-03-17T08:50:55.184Z,3.77
2019-03-17T08:53:22.506Z,4.45
2019-03-17T08:55:49.968Z,2.33
2019-03-17T08:58:17.226Z,3.10
2019-03-17T09:00:44.499Z,1.98
2019-03-17T09:03:11.759Z,4.62
2019-03-17T09:05:39.040Z,2.50
2019-03-17T09:08:06.501Z,2.87
2019-03-17T09:10:33.773Z,5.28
2019-03-17T09:13:04.041Z,3.17
2019-03-17T09:15:30.033Z,6.03
2019-03-17T09:17:57.423Z,2.77
2019-03-17T09:20:24.758Z,2.05
2019-03-17T09:22:52.039Z,4.35
2019-03-17T09:25:19.324Z,1.72
2019-03-17T09:27:46.590Z,4.40
2019-03-17T09:30:17.516Z,5.97
2019-03-17T09:32:44.770Z,5.22
2019-03-17T09:35:12.041Z,7.58
2019-03-17T09:37:39.392Z,4.28
2019-03-17T09:40:16.516Z,6.62
2019-03-17T09:42:44.047Z,3.30
2019-03-17T09:45:12.079Z,5.20
2019-03-17T09:47:41.111Z,6.20
2019-03-17T09:50:15.662Z,4.87
2019-03-17T09:52:43.017Z,8.25
2019-03-17T09:55:10.292Z,6.30
2019-03-17T09:57:37.691Z,5.58
2019-03-17T10:00:21.069Z,3.62
2019-03-17T10:02:48.415Z,5.25
2019-03-17T10:05:15.668Z,5.78
2019-03-17T10:07:42.977Z,9.08
2019-03-17T10:10:11.503Z,5.67
2019-03-17T10:12:38.780Z,5.35
2019-03-17T10:15:07.594Z,3.55
2019-03-17T10:17:34.852Z,8.65
2019-03-17T10:20:02.126Z,3.58
2019-03-17T10:22:29.389Z,5.62
2019-03-17T10:24:56.700Z,6.62
2019-03-17T10:27:24.069Z,3.77
2019-03-17T10:29:51.365Z,5.47
2019-03-17T10:32:18.622Z,6.50
2019-03-17T10:34:45.911Z,2.90
2019-03-17T10:37:13.187Z,9.05
2019-03-17T10:39:40.532Z,2.67
2019-03-17T10:42:07.787Z,2.47
2019-03-17T10:44:35.087Z,4.62
2019-03-17T10:47:03.249Z,10.75
2019-03-17T10:49:30.525Z,4.40
2019-03-17T10:51:57.798Z,4.10
2019-03-17T10:54:25.068Z,5.28
2019-03-17T10:56:52.368Z,2.25
2019-03-17T10:59:19.803Z,4.97
2019-03-17T11:01:47.246Z,6.85
2019-03-17T11:04:14.586Z,4.12
2019-03-17T11:06:41.862Z,4.45
2019-03-17T11:09:09.254Z,2.65
2019-03-17T11:11:36.518Z,4.67
2019-03-17T11:14:03.876Z,4.55
2019-03-17T11:16:31.166Z,5.35
2019-03-17T11:18:59.048Z,1.75
2019-03-17T11:21:26.351Z,3.35
2019-03-17T11:23:53.638Z,1.87
2019-03-17T11:26:20.963Z,4.42
2019-03-17T11:28:48.422Z,3.50
2019-03-17T11:31:15.694Z,5.17
2019-03-17T11:33:42.971Z,4.42
2019-03-17T11:36:10.246Z,7.12
2019-03-17T11:38:37.576Z,7.42
2019-03-17T11:41:05.122Z,3.05
2019-03-17T11:43:32.428Z,4.50
2019-03-17T11:45:59.763Z,5.00
2019-03-17T11:48:27.045Z,4.15
2019-03-17T11:50:54.338Z,2.25
2019-03-17T11:53:21.704Z,4.58
2019-03-17T11:55:49.063Z,6.33
2019-03-17T11:58:16.318Z,7.87
2019-03-17T12:00:43.633Z,4.25
2019-03-17T12:03:10.910Z,6.70
2019-03-17T12:05:38.254Z,6.25
2019-03-17T12:08:05.590Z,7.33
2019-03-17T12:10:32.872Z,7.25
2019-03-17T12:13:00.145Z,5.62
2019-03-17T12:15:28.593Z,4.30
2019-03-17T12:17:55.878Z,3.80
2019-03-17T12:20:23.243Z,5.17
2019-03-17T12:22:50.604Z,2.98
2019-03-17T12:25:18.353Z,3.22
2019-03-17T12:27:45.869Z,5.17
2019-03-17T12:30:19.769Z,6.12
2019-03-17T12:32:47.595Z,5.50
2019-03-17T12:35:15.119Z,5.28
2019-03-17T12:37:42.375Z,6.28
2019-03-17T12:40:09.660Z,5.80
2019-03-17T12:42:36.948Z,6.30
2019-03-17T12:45:05.841Z,5.35
2019-03-17T12:47:33.103Z,3.67
2019-03-17T12:50:00.417Z,6.22
2019-03-17T12:52:27.803Z,4.55
2019-03-17T12:54:55.068Z,4.80
2019-03-17T12:57:22.365Z,3.17
2019-03-17T12:59:49.630Z,4.83
2019-03-17T13:02:16.888Z,7.12
2019-03-17T13:04:44.470Z,3.65
2019-03-17T13:07:11.791Z,6.37
2019-03-17T13:09:39.307Z,5.30
2019-03-17T13:12:06.595Z,5.75
2019-03-17T13:14:33.849Z,3.27
2019-03-17T13:17:01.118Z,5.45
2019-03-17T13:19:28.402Z,5.55
2019-03-17T13:21:55.682Z,6.45
2019-03-17T13:24:22.968Z,5.97
2019-03-17T13:26:50.512Z,4.75
2019-03-17T13:29:18.194Z,4.10
2019-03-17T13:31:45.505Z,5.92
2019-03-17T13:34:13.139Z,6.50
2019-03-17T13:36:40.396Z,6.15
2019-03-17T13:39:07.669Z,6.17
2019-03-17T13:41:35.266Z,4.83
2019-03-17T13:44:02.514Z,6.42
2019-03-17T13:46:29.789Z,6.08
2019-03-17T13:48:57.152Z,5.78
2019-03-17T13:51:24.422Z,7.58
2019-03-17T13:53:51.686Z,7.28
2019-03-17T13:56:19.090Z,6.78
2019-03-17T13:58:46.346Z,10.00
2019-03-17T14:01:13.643Z,2.77
2019-03-17T14:03:40.954Z,4.55
2019-03-17T14:06:08.341Z,2.98
2019-03-17T14:08:35.631Z,3.45
2019-03-17T14:11:02.904Z,2.60
2019-03-17T14:13:30.378Z,5.78
2019-03-17T14:15:57.634Z,7.97
2019-03-17T14:18:25.026Z,3.30
2019-03-17T14:20:52.286Z,4.28
2019-03-17T14:23:19.581Z,6.37
2019-03-17T14:25:47.126Z,4.95
2019-03-17T14:28:14.604Z,3.95
2019-03-17T14:30:41.877Z,2.45
2019-03-17T14:33:09.157Z,5.10
2019-03-17T14:35:36.579Z,5.72
2019-03-17T14:38:03.918Z,7.25
2019-03-17T14:40:31.212Z,4.03
2019-03-17T14:42:58.469Z,4.62
2019-03-17T14:45:25.723Z,7.28
2019-03-17T14:47:53.159Z,5.30
2019-03-17T14:50:21.972Z,3.60
2019-03-17T14:52:49.260Z,4.67
2019-03-17T14:55:16.578Z,5.03
2019-03-17T14:57:43.861Z,5.10
2019-03-17T15:00:15.649Z,6.55
2019-03-17T15:02:42.938Z,5.97
2019-03-17T15:05:10.465Z,4.97
2019-03-17T15:07:37.745Z,3.60
2019-03-17T15:10:06.540Z,4.58
2019-03-17T15:12:33.825Z,3.62
2019-03-17T15:15:01.081Z,4.97
2019-03-17T15:17:28.429Z,2.85
2019-03-17T15:19:55.681Z,3.12
2019-03-17T15:22:22.979Z,3.80
2019-03-17T15:24:50.257Z,6.28
2019-03-17T15:27:17.886Z,6.35
2019-03-17T15:29:45.167Z,4.12
2019-03-17T15:32:12.458Z,4.70
2019-03-17T15:34:41.254Z,5.15
2019-03-17T15:37:08.698Z,9.23
2019-03-17T15:39:35.990Z,4.00
2019-03-17T15:42:03.275Z,5.55
2019-03-17T15:44:30.564Z,4.85
2019-03-17T15:46:57.890Z,4.10
2019-03-17T15:49:25.386Z,3.27
2019-03-17T15:51:52.656Z,2.92
2019-03-17T15:54:21.527Z,5.30
2019-03-17T15:56:49.097Z,6.90
2019-03-17T15:59:16.673Z,7.17
2019-03-17T16:01:44.025Z,3.80
2019-03-17T16:04:11.617Z,5.37
2019-03-17T16:06:38.939Z,4.60
2019-03-17T16:09:07.013Z,4.50
2019-03-17T16:11:34.498Z,5.60
2019-03-17T16:14:01.753Z,4.55
2019-03-17T16:16:29.337Z,3.12
2019-03-17T16:18:56.653Z,4.15
2019-03-17T16:21:23.931Z,5.58
2019-03-17T16:23:51.237Z,2.67
2019-03-17T16:26:18.881Z,2.83
2019-03-17T16:28:46.189Z,4.78
2019-03-17T16:31:13.456Z,4.62
2019-03-17T16:33:41.009Z,2.95
2019-03-17T16:36:08.279Z,3.10
2019-03-17T16:38:35.566Z,3.30
2019-03-17T16:41:02.833Z,3.37
2019-03-17T16:43:30.133Z,6.08
2019-03-17T16:45:57.403Z,5.30
2019-03-17T16:48:24.792Z,3.15
2019-03-17T16:50:52.117Z,8.25
2019-03-17T16:53:19.390Z,4.75
2019-03-17T16:55:46.638Z,4.65
2019-03-17T16:58:13.910Z,4.62
2019-03-17T17:00:41.272Z,6.00
2019-03-17T17:03:08.529Z,3.52
2019-03-17T17:05:35.882Z,5.25
2019-03-17T17:08:03.159Z,2.25
2019-03-17T17:10:30.935Z,5.67
2019-03-17T17:12:58.312Z,4.95
2019-03-17T17:15:26.094Z,8.95
2019-03-17T17:17:53.351Z,7.10
2019-03-17T17:20:21.790Z,9.05
2019-03-17T17:22:49.144Z,5.85
2019-03-17T17:25:25.297Z,7.10
2019-03-17T17:27:53.112Z,13.03
2019-03-17T17:30:20.502Z,6.33
2019-03-17T17:32:47.835Z,9.98
2019-03-17T17:35:15.177Z,5.50
2019-03-17T17:37:42.703Z,8.60
2019-03-17T17:40:11.515Z,5.33
2019-03-17T17:42:38.781Z,4.35
2019-03-17T17:45:07.598Z,7.80
2019-03-17T17:47:34.908Z,2.50
2019-03-17T17:50:02.195Z,5.05
2019-03-17T17:52:29.471Z,4.85
2019-03-17T17:54:56.746Z,3.50
2019-03-17T17:57:24.010Z,3.55
2019-03-17T17:59:51.299Z,7.72
2019-03-17T18:02:18.550Z,5.08
2019-03-17T18:04:45.818Z,4.22
2019-03-17T18:07:13.096Z,4.17
2019-03-17T18:09:40.440Z,3.35
2019-03-17T18:12:07.732Z,5.25
2019-03-17T18:14:34.986Z,9.80
2019-03-17T18:17:02.277Z,5.03
2019-03-17T18:19:30.272Z,4.65
2019-03-17T18:21:57.560Z,6.08
2019-03-17T18:24:24.818Z,3.42
2019-03-17T18:26:52.099Z,4.53
2019-03-17T18:29:19.418Z,6.33
2019-03-17T18:31:46.694Z,6.40
2019-03-17T18:34:13.999Z,3.52
2019-03-17T18:36:41.517Z,4.75
2019-03-17T18:39:08.876Z,5.37
2019-03-17T18:41:36.150Z,5.62
2019-03-17T18:44:03.409Z,5.50
2019-03-17T18:46:30.692Z,7.53
2019-03-17T18:48:57.984Z,3.70
2019-03-17T18:51:25.397Z,3.95
2019-03-17T18:53:52.982Z,9.68
2019-03-17T18:56:20.257Z,5.10
2019-03-17T18:58:47.534Z,5.15
2019-03-17T19:01:14.806Z,4.95
2019-03-17T19:03:42.061Z,4.87
2019-03-17T19:06:09.339Z,7.58
2019-03-17T19:08:36.609Z,5.47
2019-03-17T19:11:03.933Z,4.62
2019-03-17T19:13:31.202Z,2.95
2019-03-17T19:15:58.603Z,3.08
2019-03-17T19:18:25.893Z,6.53
2019-03-17T19:20:53.186Z,5.25
2019-03-17T19:23:20.665Z,4.50
2019-03-17T19:25:47.964Z,2.87
2019-03-17T19:28:15.225Z,3.08
2019-03-17T19:30:42.493Z,1.82
2019-03-17T19:33:09.770Z,3.45
2019-03-17T19:35:37.030Z,3.98
2019-03-17T19:38:04.286Z,3.52
2019-03-17T19:40:31.576Z,2.83
2019-03-17T19:42:59.859Z,4.08
2019-03-17T19:45:27.486Z,2.05
2019-03-17T19:47:54.740Z,3.08
2019-03-17T19:50:22.289Z,5.22
2019-03-17T19:52:49.546Z,4.15
2019-03-17T19:55:16.841Z,3.17
2019-03-17T19:57:44.100Z,5.67
2019-03-17T20:00:13.002Z,2.55
2019-03-17T20:02:40.267Z,6.17
2019-03-17T20:05:07.627Z,5.58
2019-03-17T20:07:34.885Z,1.98
2019-03-17T20:10:02.158Z,2.83
2019-03-17T20:12:29.433Z,1.95
2019-03-17T20:14:56.721Z,3.05
2019-03-17T20:17:23.981Z,2.08
2019-03-17T20:19:51.243Z,2.67
2019-03-17T20:22:18.509Z,1.67
2019-03-17T20:24:45.762Z,3.17
2019-03-17T20:27:13.063Z,3.12
2019-03-17T20:29:40.330Z,3.50
2019-03-17T20:32:07.600Z,3.37
2019-03-17T20:34:35.734Z,1.52
2019-03-17T20:37:03.377Z,5.15
2019-03-17T20:39:30.642Z,3.35
2019-03-17T20:41:57.899Z,5.85
2019-03-17T20:44:25.173Z,4.60
2019-03-17T20:46:52.582Z,6.62
2019-03-17T20:49:20.062Z,2.67
2019-03-17T20:51:47.319Z,5.78
2019-03-17T20:54:14.587Z,6.28
2019-03-17T20:56:41.929Z,11.30
2019-03-17T20:59:09.396Z,6.92
2019-03-17T21:01:36.834Z,6.97
2019-03-17T21:04:04.161Z,7.47
2019-03-17T21:06:31.457Z,5.72
2019-03-17T21:08:58.719Z,6.62
2019-03-17T21:11:25.986Z,6.03
2019-03-17T21:13:53.264Z,5.28
2019-03-17T21:16:20.534Z,11.22
2019-03-17T21:18:47.807Z,5.17
2019-03-17T21:21:15.274Z,7.28
2019-03-17T21:23:42.549Z,7.80
2019-03-17T21:26:09.818Z,5.37
2019-03-17T21:28:37.121Z,7.37
2019-03-17T21:31:04.382Z,8.98
2019-03-17T21:33:31.659Z,4.95
2019-03-17T21:35:58.919Z,7.05
2019-03-17T21:38:26.187Z,8.80
2019-03-17T21:41:06.621Z,6.80
2019-03-17T21:43:22.449Z,8.68
2019-03-17T21:45:49.719Z,4.72
2019-03-17T21:48:16.999Z,7.47
2019-03-17T21:50:45.199Z,4.28
2019-03-17T21:53:12.472Z,7.58
2019-03-17T21:55:39.734Z,3.90
2019-03-17T21:58:08.044Z,6.42
2019-03-17T22:00:35.745Z,3.52
2019-03-17T22:03:03.033Z,7.75
2019-03-17T22:05:30.293Z,7.97
2019-03-17T22:07:57.679Z,9.15
2019-03-17T22:10:24.962Z,7.30
2019-03-17T22:12:52.230Z,6.00
2019-03-17T22:15:19.503Z,6.53
2019-03-17T22:17:46.766Z,8.35
2019-03-17T22:20:14.621Z,8.80
2019-03-17T22:22:42.058Z,6.28
2019-03-17T22:25:10.015Z,5.75
2019-03-17T22:27:37.305Z,4.85
2019-03-17T22:30:06.126Z,5.45
2019-03-17T22:32:33.471Z,5.20
2019-03-17T22:35:00.749Z,5.65
2019-03-17T22:37:28.016Z,3.33
2019-03-17T22:39:55.291Z,4.15
2019-03-17T22:42:22.577Z,4.72
2019-03-17T22:44:49.919Z,4.25
2019-03-17T22:47:17.308Z,5.08
2019-03-17T22:49:44.938Z,3.55
2019-03-17T22:52:12.245Z,3.42
2019-03-17T22:54:39.497Z,8.40
2019-03-17T22:57:06.948Z,9.75
2019-03-17T22:59:34.218Z,8.43
2019-03-17T23:02:01.480Z,4.30
2019-03-17T23:04:28.770Z,5.55
2019-03-17T23:06:56.190Z,7.15
2019-03-17T23:09:23.479Z,4.42
2019-03-17T23:11:50.733Z,3.62
2019-03-17T23:14:18.153Z,8.05
2019-03-17T23:16:45.411Z,7.95
2019-03-17T23:19:12.701Z,8.30
2019-03-17T23:21:40.037Z,6.50
2019-03-17T23:24:07.387Z,7.12
2019-03-17T23:26:34.752Z,5.20
2019-03-17T23:29:02.011Z,5.50
2019-03-17T23:31:29.362Z,6.60
2019-03-17T23:33:56.654Z,7.33
2019-03-17T23:36:23.919Z,4.55
2019-03-17T23:38:51.201Z,6.37
2019-03-17T23:41:18.546Z,7.80
2019-03-17T23:43:45.817Z,4.50
2019-03-17T23:46:13.076Z,3.47
2019-03-17T23:48:40.361Z,4.47
2019-03-17T23:51:07.610Z,5.85
2019-03-17T23:53:34.897Z,1.92
2019-03-17T23:56:02.176Z,2.55
2019-03-17T23:58:29.454Z,5.05
